sensor_id;sensor_type;location;lat;lon;timestamp;P1;durP1;ratioP1;P2;durP2;ratioP2
53062;SDS011;40529;52.172;10.548;2022-11-20T00:00:53;27.88;;;15.43;;
53062;SDS011;40529;52.172;10.548;2022-11-20T00:03:19;24.77;;;14.85;;
53062;SDS011;40529;52.172;10.548;2022-11-20T00:05:45;28.00;;;16.15;;
53062;SDS011;40529;52.172;10.548;2022-11-20T00:08:11;27.02;;;15.93;;
53062;SDS011;40529;52.172;10.548;2022-11-20T00:10:38;26.02;;;15.23;;
53062;SDS011;40529;52.172;10.548;2022-11-20T00:13:04;27.15;;;14.88;;
53062;SDS011;40529;52.172;10.548;2022-11-20T00:15:31;26.52;;;14.65;;
53062;SDS011;40529;52.172;10.548;2022-11-20T00:17:57;26.17;;;14.13;;
53062;SDS011;40529;52.172;10.548;2022-11-20T00:20:23;24.80;;;14.00;;
53062;SDS011;40529;52.172;10.548;2022-11-20T00:22:49;24.35;;;13.27;;
53062;SDS011;40529;52.172;10.548;2022-11-20T00:25:16;22.98;;;13.35;;
53062;SDS011;40529;52.172;10.548;2022-11-20T00:27:42;24.15;;;12.45;;
53062;SDS011;40529;52.172;10.548;2022-11-20T00:30:08;21.48;;;12.25;;
53062;SDS011;40529;52.172;10.548;2022-11-20T00:32:34;25.83;;;12.02;;
53062;SDS011;40529;52.172;10.548;2022-11-20T00:35:00;22.67;;;12.63;;
53062;SDS011;40529;52.172;10.548;2022-11-20T00:37:26;23.77;;;13.18;;
53062;SDS011;40529;52.172;10.548;2022-11-20T00:39:52;21.05;;;11.45;;
53062;SDS011;40529;52.172;10.548;2022-11-20T00:42:18;22.25;;;11.57;;
53062;SDS011;40529;52.172;10.548;2022-11-20T00:44:44;22.10;;;12.10;;
53062;SDS011;40529;52.172;10.548;2022-11-20T00:47:10;20.30;;;11.32;;
53062;SDS011;40529;52.172;10.548;2022-11-20T00:49:36;19.80;;;11.40;;
53062;SDS011;40529;52.172;10.548;2022-11-20T00:52:02;20.15;;;11.30;;
53062;SDS011;40529;52.172;10.548;2022-11-20T00:54:28;19.95;;;11.65;;
53062;SDS011;40529;52.172;10.548;2022-11-20T00:56:55;20.90;;;11.52;;
53062;SDS011;40529;52.172;10.548;2022-11-20T00:59:21;20.48;;;11.80;;
53062;SDS011;40529;52.172;10.548;2022-11-20T01:01:47;20.60;;;11.40;;
53062;SDS011;40529;52.172;10.548;2022-11-20T01:04:13;19.17;;;10.85;;
53062;SDS011;40529;52.172;10.548;2022-11-20T01:06:40;20.73;;;11.32;;
53062;SDS011;40529;52.172;10.548;2022-11-20T01:09:11;17.38;;;10.55;;
53062;SDS011;40529;52.172;10.548;2022-11-20T01:11:39;21.58;;;12.38;;
53062;SDS011;40529;52.172;10.548;2022-11-20T01:14:06;21.52;;;12.13;;
53062;SDS011;40529;52.172;10.548;2022-11-20T01:16:34;21.60;;;12.00;;
53062;SDS011;40529;52.172;10.548;2022-11-20T01:19:01;19.17;;;10.88;;
53062;SDS011;40529;52.172;10.548;2022-11-20T01:21:28;19.90;;;10.80;;
53062;SDS011;40529;52.172;10.548;2022-11-20T01:23:54;18.63;;;10.48;;
53062;SDS011;40529;52.172;10.548;2022-11-20T01:26:22;19.25;;;11.20;;
53062;SDS011;40529;52.172;10.548;2022-11-20T01:28:48;17.33;;;10.38;;
53062;SDS011;40529;52.172;10.548;2022-11-20T01:31:16;18.35;;;10.27;;
53062;SDS011;40529;52.172;10.548;2022-11-20T01:33:43;17.85;;;10.05;;
53062;SDS011;40529;52.172;10.548;2022-11-20T01:36:10;19.85;;;10.75;;
53062;SDS011;40529;52.172;10.548;2022-11-20T01:38:36;17.13;;;10.10;;
53062;SDS011;40529;52.172;10.548;2022-11-20T01:41:02;17.52;;;10.27;;
53062;SDS011;40529;52.172;10.548;2022-11-20T01:43:28;19.83;;;10.00;;
53062;SDS011;40529;52.172;10.548;2022-11-20T01:48:37;20.35;;;10.77;;
53062;SDS011;40529;52.172;10.548;2022-11-20T01:51:04;17.00;;;9.98;;
53062;SDS011;40529;52.172;10.548;2022-11-20T01:53:33;24.67;;;11.63;;
53062;SDS011;40529;52.172;10.548;2022-11-20T01:56:02;19.05;;;10.85;;
53062;SDS011;40529;52.172;10.548;2022-11-20T01:58:30;16.65;;;8.98;;
53062;SDS011;40529;52.172;10.548;2022-11-20T02:00:58;16.45;;;9.77;;
53062;SDS011;40529;52.172;10.548;2022-11-20T02:03:24;17.25;;;9.82;;
53062;SDS011;40529;52.172;10.548;2022-11-20T02:08:35;19.52;;;10.35;;
53062;SDS011;40529;52.172;10.548;2022-11-20T02:11:01;20.40;;;10.45;;
53062;SDS011;40529;52.172;10.548;2022-11-20T02:13:27;18.73;;;10.40;;
53062;SDS011;40529;52.172;10.548;2022-11-20T02:16:18;17.90;;;9.90;;
53062;SDS011;40529;52.172;10.548;2022-11-20T02:18:45;20.77;;;11.18;;
53062;SDS011;40529;52.172;10.548;2022-11-20T02:21:27;19.42;;;10.93;;
53062;SDS011;40529;52.172;10.548;2022-11-20T02:24:03;19.65;;;9.77;;
53062;SDS011;40529;52.172;10.548;2022-11-20T02:26:31;19.20;;;10.60;;
53062;SDS011;40529;52.172;10.548;2022-11-20T02:28:58;18.45;;;9.90;;
53062;SDS011;40529;52.172;10.548;2022-11-20T02:31:25;19.17;;;11.35;;
53062;SDS011;40529;52.172;10.548;2022-11-20T02:33:55;18.98;;;10.90;;
53062;SDS011;40529;52.172;10.548;2022-11-20T02:36:21;20.33;;;10.93;;
53062;SDS011;40529;52.172;10.548;2022-11-20T02:38:47;19.40;;;11.50;;
53062;SDS011;40529;52.172;10.548;2022-11-20T02:41:14;19.42;;;10.90;;
53062;SDS011;40529;52.172;10.548;2022-11-20T02:43:40;21.75;;;11.65;;
53062;SDS011;40529;52.172;10.548;2022-11-20T02:46:06;22.23;;;12.32;;
53062;SDS011;40529;52.172;10.548;2022-11-20T02:48:33;20.27;;;11.10;;
53062;SDS011;40529;52.172;10.548;2022-11-20T02:50:59;22.05;;;10.50;;
53062;SDS011;40529;52.172;10.548;2022-11-20T02:53:25;20.25;;;10.35;;
53062;SDS011;40529;52.172;10.548;2022-11-20T02:55:51;18.90;;;10.80;;
53062;SDS011;40529;52.172;10.548;2022-11-20T02:58:18;17.05;;;9.93;;
53062;SDS011;40529;52.172;10.548;2022-11-20T03:00:44;21.17;;;11.35;;
53062;SDS011;40529;52.172;10.548;2022-11-20T03:03:10;20.88;;;10.48;;
53062;SDS011;40529;52.172;10.548;2022-11-20T03:05:36;20.58;;;11.05;;
53062;SDS011;40529;52.172;10.548;2022-11-20T03:08:02;18.05;;;10.57;;
53062;SDS011;40529;52.172;10.548;2022-11-20T03:10:28;22.15;;;11.30;;
53062;SDS011;40529;52.172;10.548;2022-11-20T03:12:54;19.25;;;11.10;;
53062;SDS011;40529;52.172;10.548;2022-11-20T03:15:22;21.85;;;10.98;;
53062;SDS011;40529;52.172;10.548;2022-11-20T03:17:48;19.05;;;10.68;;
53062;SDS011;40529;52.172;10.548;2022-11-20T03:20:14;19.17;;;10.65;;
53062;SDS011;40529;52.172;10.548;2022-11-20T03:22:40;18.80;;;10.23;;
53062;SDS011;40529;52.172;10.548;2022-11-20T03:25:06;20.08;;;10.93;;
53062;SDS011;40529;52.172;10.548;2022-11-20T03:27:33;17.83;;;10.27;;
53062;SDS011;40529;52.172;10.548;2022-11-20T03:29:59;18.48;;;10.45;;
53062;SDS011;40529;52.172;10.548;2022-11-20T03:32:26;20.05;;;10.48;;
53062;SDS011;40529;52.172;10.548;2022-11-20T03:34:52;20.88;;;10.27;;
53062;SDS011;40529;52.172;10.548;2022-11-20T03:37:18;19.20;;;10.55;;
53062;SDS011;40529;52.172;10.548;2022-11-20T03:39:44;17.80;;;10.63;;
53062;SDS011;40529;52.172;10.548;2022-11-20T03:42:10;19.13;;;10.85;;
53062;SDS011;40529;52.172;10.548;2022-11-20T03:44:56;17.95;;;10.00;;
53062;SDS011;40529;52.172;10.548;2022-11-20T03:47:22;18.17;;;10.35;;
53062;SDS011;40529;52.172;10.548;2022-11-20T03:49:48;19.10;;;10.25;;
53062;SDS011;40529;52.172;10.548;2022-11-20T03:52:14;19.15;;;10.50;;
53062;SDS011;40529;52.172;10.548;2022-11-20T03:54:40;19.13;;;10.48;;
53062;SDS011;40529;52.172;10.548;2022-11-20T03:57:06;19.50;;;10.30;;
53062;SDS011;40529;52.172;10.548;2022-11-20T03:59:32;20.67;;;10.80;;
53062;SDS011;40529;52.172;10.548;2022-11-20T04:01:58;18.77;;;10.50;;
53062;SDS011;40529;52.172;10.548;2022-11-20T04:04:24;19.35;;;10.35;;
53062;SDS011;40529;52.172;10.548;2022-11-20T04:06:50;19.63;;;10.68;;
53062;SDS011;40529;52.172;10.548;2022-11-20T04:09:16;17.75;;;10.45;;
53062;SDS011;40529;52.172;10.548;2022-11-20T04:11:42;22.23;;;10.85;;
53062;SDS011;40529;52.172;10.548;2022-11-20T04:14:13;20.10;;;11.48;;
53062;SDS011;40529;52.172;10.548;2022-11-20T04:16:39;19.65;;;11.40;;
53062;SDS011;40529;52.172;10.548;2022-11-20T04:19:05;19.23;;;10.82;;
53062;SDS011;40529;52.172;10.548;2022-11-20T04:21:32;21.95;;;11.07;;
53062;SDS011;40529;52.172;10.548;2022-11-20T04:23:58;23.02;;;10.95;;
53062;SDS011;40529;52.172;10.548;2022-11-20T04:26:25;20.95;;;11.63;;
53062;SDS011;40529;52.172;10.548;2022-11-20T04:28:51;19.98;;;11.18;;
53062;SDS011;40529;52.172;10.548;2022-11-20T04:31:18;21.25;;;10.93;;
53062;SDS011;40529;52.172;10.548;2022-11-20T04:33:45;20.58;;;11.13;;
53062;SDS011;40529;52.172;10.548;2022-11-20T04:36:12;20.35;;;10.70;;
53062;SDS011;40529;52.172;10.548;2022-11-20T04:38:38;20.25;;;10.70;;
53062;SDS011;40529;52.172;10.548;2022-11-20T04:41:05;20.10;;;10.60;;
53062;SDS011;40529;52.172;10.548;2022-11-20T04:43:32;18.05;;;10.38;;
53062;SDS011;40529;52.172;10.548;2022-11-20T04:45:59;20.23;;;11.27;;
53062;SDS011;40529;52.172;10.548;2022-11-20T04:48:25;19.27;;;10.40;;
53062;SDS011;40529;52.172;10.548;2022-11-20T04:50:52;19.25;;;10.48;;
53062;SDS011;40529;52.172;10.548;2022-11-20T04:53:19;20.90;;;10.13;;
53062;SDS011;40529;52.172;10.548;2022-11-20T04:55:46;17.67;;;10.52;;
53062;SDS011;40529;52.172;10.548;2022-11-20T04:58:12;18.50;;;10.40;;
53062;SDS011;40529;52.172;10.548;2022-11-20T05:00:39;21.25;;;10.73;;
53062;SDS011;40529;52.172;10.548;2022-11-20T05:03:05;19.33;;;10.05;;
53062;SDS011;40529;52.172;10.548;2022-11-20T05:05:31;17.98;;;10.15;;
53062;SDS011;40529;52.172;10.548;2022-11-20T05:07:57;19.77;;;9.48;;
53062;SDS011;40529;52.172;10.548;2022-11-20T05:10:24;20.77;;;10.90;;
53062;SDS011;40529;52.172;10.548;2022-11-20T05:12:50;18.38;;;10.23;;
53062;SDS011;40529;52.172;10.548;2022-11-20T05:15:16;19.50;;;10.70;;
53062;SDS011;40529;52.172;10.548;2022-11-20T05:17:49;17.13;;;9.52;;
53062;SDS011;40529;52.172;10.548;2022-11-20T05:20:16;20.23;;;10.52;;
53062;SDS011;40529;52.172;10.548;2022-11-20T05:22:42;18.92;;;9.77;;
53062;SDS011;40529;52.172;10.548;2022-11-20T05:25:09;19.45;;;10.05;;
53062;SDS011;40529;52.172;10.548;2022-11-20T05:27:35;20.20;;;10.43;;
53062;SDS011;40529;52.172;10.548;2022-11-20T05:30:01;16.90;;;9.65;;
53062;SDS011;40529;52.172;10.548;2022-11-20T05:32:27;18.63;;;9.88;;
53062;SDS011;40529;52.172;10.548;2022-11-20T05:34:53;19.35;;;10.15;;
53062;SDS011;40529;52.172;10.548;2022-11-20T05:37:19;19.70;;;11.15;;
53062;SDS011;40529;52.172;10.548;2022-11-20T05:39:45;20.52;;;10.55;;
53062;SDS011;40529;52.172;10.548;2022-11-20T05:42:11;17.55;;;10.13;;
53062;SDS011;40529;52.172;10.548;2022-11-20T05:44:59;16.92;;;9.70;;
53062;SDS011;40529;52.172;10.548;2022-11-20T05:47:26;18.52;;;10.80;;
53062;SDS011;40529;52.172;10.548;2022-11-20T05:49:53;17.13;;;9.75;;
53062;SDS011;40529;52.172;10.548;2022-11-20T05:52:19;18.92;;;10.13;;
53062;SDS011;40529;52.172;10.548;2022-11-20T05:54:45;18.55;;;10.15;;
53062;SDS011;40529;52.172;10.548;2022-11-20T05:57:11;17.48;;;9.18;;
53062;SDS011;40529;52.172;10.548;2022-11-20T05:59:37;19.67;;;10.40;;
53062;SDS011;40529;52.172;10.548;2022-11-20T06:02:03;22.85;;;11.32;;
53062;SDS011;40529;52.172;10.548;2022-11-20T06:04:29;19.83;;;11.05;;
53062;SDS011;40529;52.172;10.548;2022-11-20T06:06:55;16.88;;;10.80;;
53062;SDS011;40529;52.172;10.548;2022-11-20T06:09:21;20.40;;;10.93;;
53062;SDS011;40529;52.172;10.548;2022-11-20T06:11:47;20.42;;;11.48;;
53062;SDS011;40529;52.172;10.548;2022-11-20T06:14:13;19.50;;;11.35;;
53062;SDS011;40529;52.172;10.548;2022-11-20T06:16:39;21.65;;;11.45;;
53062;SDS011;40529;52.172;10.548;2022-11-20T06:19:05;20.63;;;10.93;;
53062;SDS011;40529;52.172;10.548;2022-11-20T06:21:31;18.65;;;10.93;;
53062;SDS011;40529;52.172;10.548;2022-11-20T06:23:57;19.77;;;10.93;;
53062;SDS011;40529;52.172;10.548;2022-11-20T06:26:25;21.58;;;10.38;;
53062;SDS011;40529;52.172;10.548;2022-11-20T06:28:52;19.70;;;10.70;;
53062;SDS011;40529;52.172;10.548;2022-11-20T06:31:20;18.17;;;9.85;;
53062;SDS011;40529;52.172;10.548;2022-11-20T06:33:46;19.92;;;10.85;;
53062;SDS011;40529;52.172;10.548;2022-11-20T06:36:13;19.58;;;11.07;;
53062;SDS011;40529;52.172;10.548;2022-11-20T06:38:40;19.75;;;10.57;;
53062;SDS011;40529;52.172;10.548;2022-11-20T06:41:07;17.48;;;9.27;;
53062;SDS011;40529;52.172;10.548;2022-11-20T06:43:33;21.90;;;11.55;;
53062;SDS011;40529;52.172;10.548;2022-11-20T06:45:59;18.27;;;10.68;;
53062;SDS011;40529;52.172;10.548;2022-11-20T06:48:26;19.33;;;10.70;;
53062;SDS011;40529;52.172;10.548;2022-11-20T06:50:52;20.50;;;10.35;;
53062;SDS011;40529;52.172;10.548;2022-11-20T06:53:18;18.63;;;9.45;;
53062;SDS011;40529;52.172;10.548;2022-11-20T06:55:45;21.52;;;10.57;;
53062;SDS011;40529;52.172;10.548;2022-11-20T06:58:12;19.00;;;10.75;;
53062;SDS011;40529;52.172;10.548;2022-11-20T07:00:38;19.38;;;9.95;;
53062;SDS011;40529;52.172;10.548;2022-11-20T07:03:08;18.30;;;10.90;;
53062;SDS011;40529;52.172;10.548;2022-11-20T07:05:34;17.05;;;9.80;;
53062;SDS011;40529;52.172;10.548;2022-11-20T07:08:00;19.23;;;11.27;;
53062;SDS011;40529;52.172;10.548;2022-11-20T07:10:26;18.60;;;10.73;;
53062;SDS011;40529;52.172;10.548;2022-11-20T07:12:53;20.33;;;10.88;;
53062;SDS011;40529;52.172;10.548;2022-11-20T07:15:19;22.70;;;11.70;;
53062;SDS011;40529;52.172;10.548;2022-11-20T07:17:45;20.98;;;12.00;;
53062;SDS011;40529;52.172;10.548;2022-11-20T07:20:12;20.67;;;11.50;;
53062;SDS011;40529;52.172;10.548;2022-11-20T07:22:38;25.73;;;12.77;;
53062;SDS011;40529;52.172;10.548;2022-11-20T07:25:04;23.98;;;12.55;;
53062;SDS011;40529;52.172;10.548;2022-11-20T07:27:30;19.85;;;12.07;;
53062;SDS011;40529;52.172;10.548;2022-11-20T07:29:57;22.30;;;11.63;;
53062;SDS011;40529;52.172;10.548;2022-11-20T07:32:23;22.08;;;12.07;;
53062;SDS011;40529;52.172;10.548;2022-11-20T07:34:49;22.63;;;12.45;;
53062;SDS011;40529;52.172;10.548;2022-11-20T07:37:15;20.90;;;12.32;;
53062;SDS011;40529;52.172;10.548;2022-11-20T07:39:42;22.85;;;12.27;;
53062;SDS011;40529;52.172;10.548;2022-11-20T07:42:08;18.75;;;10.98;;
53062;SDS011;40529;52.172;10.548;2022-11-20T07:44:34;22.10;;;11.23;;
53062;SDS011;40529;52.172;10.548;2022-11-20T07:47:00;20.88;;;11.35;;
53062;SDS011;40529;52.172;10.548;2022-11-20T07:49:26;19.98;;;11.27;;
53062;SDS011;40529;52.172;10.548;2022-11-20T07:51:53;18.67;;;10.85;;
53062;SDS011;40529;52.172;10.548;2022-11-20T07:54:19;21.35;;;11.18;;
53062;SDS011;40529;52.172;10.548;2022-11-20T07:56:46;23.13;;;11.85;;
53062;SDS011;40529;52.172;10.548;2022-11-20T07:59:12;23.52;;;11.95;;
53062;SDS011;40529;52.172;10.548;2022-11-20T08:01:38;20.73;;;11.18;;
53062;SDS011;40529;52.172;10.548;2022-11-20T08:04:04;19.83;;;10.90;;
53062;SDS011;40529;52.172;10.548;2022-11-20T08:06:30;19.75;;;10.88;;
53062;SDS011;40529;52.172;10.548;2022-11-20T08:08:56;18.50;;;10.77;;
53062;SDS011;40529;52.172;10.548;2022-11-20T08:11:23;17.75;;;10.57;;
53062;SDS011;40529;52.172;10.548;2022-11-20T08:14:07;19.23;;;10.75;;
53062;SDS011;40529;52.172;10.548;2022-11-20T08:16:44;18.45;;;10.32;;
53062;SDS011;40529;52.172;10.548;2022-11-20T08:21:36;16.20;;;10.02;;
53062;SDS011;40529;52.172;10.548;2022-11-20T08:24:02;19.42;;;10.80;;
53062;SDS011;40529;52.172;10.548;2022-11-20T08:26:28;19.00;;;10.85;;
53062;SDS011;40529;52.172;10.548;2022-11-20T08:28:55;18.90;;;11.15;;
53062;SDS011;40529;52.172;10.548;2022-11-20T08:31:21;19.13;;;11.27;;
53062;SDS011;40529;52.172;10.548;2022-11-20T08:33:47;17.58;;;10.13;;
53062;SDS011;40529;52.172;10.548;2022-11-20T08:36:14;17.88;;;11.40;;
53062;SDS011;40529;52.172;10.548;2022-11-20T08:38:40;21.83;;;12.50;;
53062;SDS011;40529;52.172;10.548;2022-11-20T08:41:06;20.60;;;11.45;;
53062;SDS011;40529;52.172;10.548;2022-11-20T08:43:55;19.70;;;12.07;;
53062;SDS011;40529;52.172;10.548;2022-11-20T08:46:22;17.98;;;10.60;;
53062;SDS011;40529;52.172;10.548;2022-11-20T08:48:48;20.23;;;10.55;;
53062;SDS011;40529;52.172;10.548;2022-11-20T08:51:14;19.27;;;10.90;;
53062;SDS011;40529;52.172;10.548;2022-11-20T08:53:41;15.98;;;9.88;;
53062;SDS011;40529;52.172;10.548;2022-11-20T08:56:07;18.17;;;10.15;;
53062;SDS011;40529;52.172;10.548;2022-11-20T08:58:34;19.15;;;10.43;;
53062;SDS011;40529;52.172;10.548;2022-11-20T09:01:01;18.08;;;10.38;;
53062;SDS011;40529;52.172;10.548;2022-11-20T09:03:27;16.73;;;10.07;;
53062;SDS011;40529;52.172;10.548;2022-11-20T09:05:57;18.10;;;10.45;;
53062;SDS011;40529;52.172;10.548;2022-11-20T09:08:23;18.02;;;10.43;;
53062;SDS011;40529;52.172;10.548;2022-11-20T09:10:53;17.65;;;10.60;;
53062;SDS011;40529;52.172;10.548;2022-11-20T09:13:19;18.48;;;10.00;;
53062;SDS011;40529;52.172;10.548;2022-11-20T09:15:45;18.65;;;11.18;;
53062;SDS011;40529;52.172;10.548;2022-11-20T09:18:12;21.45;;;11.15;;
53062;SDS011;40529;52.172;10.548;2022-11-20T09:20:38;25.10;;;14.32;;
53062;SDS011;40529;52.172;10.548;2022-11-20T09:23:04;24.65;;;13.38;;
53062;SDS011;40529;52.172;10.548;2022-11-20T09:25:30;18.10;;;11.15;;
53062;SDS011;40529;52.172;10.548;2022-11-20T09:27:59;15.38;;;10.07;;
53062;SDS011;40529;52.172;10.548;2022-11-20T09:30:26;15.68;;;9.50;;
53062;SDS011;40529;52.172;10.548;2022-11-20T09:32:53;18.52;;;9.50;;
53062;SDS011;40529;52.172;10.548;2022-11-20T09:35:19;15.60;;;9.65;;
53062;SDS011;40529;52.172;10.548;2022-11-20T09:37:45;15.95;;;9.70;;
53062;SDS011;40529;52.172;10.548;2022-11-20T09:40:21;15.93;;;9.57;;
53062;SDS011;40529;52.172;10.548;2022-11-20T09:42:59;13.48;;;8.10;;
53062;SDS011;40529;52.172;10.548;2022-11-20T09:45:36;11.40;;;6.45;;
53062;SDS011;40529;52.172;10.548;2022-11-20T09:53:23;14.60;;;8.82;;
53062;SDS011;40529;52.172;10.548;2022-11-20T09:55:52;14.90;;;9.07;;
53062;SDS011;40529;52.172;10.548;2022-11-20T09:58:28;15.10;;;9.10;;
53062;SDS011;40529;52.172;10.548;2022-11-20T10:00:56;14.85;;;8.60;;
53062;SDS011;40529;52.172;10.548;2022-11-20T10:03:30;14.13;;;8.98;;
53062;SDS011;40529;52.172;10.548;2022-11-20T10:06:01;13.95;;;8.18;;
53062;SDS011;40529;52.172;10.548;2022-11-20T10:08:28;15.85;;;9.10;;
53062;SDS011;40529;52.172;10.548;2022-11-20T10:11:17;15.18;;;8.80;;
53062;SDS011;40529;52.172;10.548;2022-11-20T10:19:03;17.35;;;10.00;;
53062;SDS011;40529;52.172;10.548;2022-11-20T10:21:39;16.05;;;9.20;;
53062;SDS011;40529;52.172;10.548;2022-11-20T10:29:33;10.23;;;6.33;;
53062;SDS011;40529;52.172;10.548;2022-11-20T10:32:01;14.43;;;9.00;;
53062;SDS011;40529;52.172;10.548;2022-11-20T10:37:15;16.42;;;8.88;;
53062;SDS011;40529;52.172;10.548;2022-11-20T10:42:45;16.60;;;8.57;;
53062;SDS011;40529;52.172;10.548;2022-11-20T10:45:19;14.88;;;9.52;;
53062;SDS011;40529;52.172;10.548;2022-11-20T10:47:47;14.68;;;9.20;;
53062;SDS011;40529;52.172;10.548;2022-11-20T10:50:16;14.43;;;8.52;;
53062;SDS011;40529;52.172;10.548;2022-11-20T10:53:02;15.02;;;8.20;;
53062;SDS011;40529;52.172;10.548;2022-11-20T10:55:43;15.80;;;8.93;;
53062;SDS011;40529;52.172;10.548;2022-11-20T10:58:22;16.48;;;9.55;;
53062;SDS011;40529;52.172;10.548;2022-11-20T11:00:51;20.50;;;10.25;;
53062;SDS011;40529;52.172;10.548;2022-11-20T11:03:27;17.10;;;9.70;;
53062;SDS011;40529;52.172;10.548;2022-11-20T11:06:06;16.77;;;9.63;;
53062;SDS011;40529;52.172;10.548;2022-11-20T11:08:43;18.73;;;10.35;;
53062;SDS011;40529;52.172;10.548;2022-11-20T11:11:29;17.55;;;10.48;;
53062;SDS011;40529;52.172;10.548;2022-11-20T11:16:31;21.70;;;12.30;;
53062;SDS011;40529;52.172;10.548;2022-11-20T11:19:07;26.92;;;13.95;;
53062;SDS011;40529;52.172;10.548;2022-11-20T11:21:37;24.90;;;13.05;;
53062;SDS011;40529;52.172;10.548;2022-11-20T11:24:14;23.38;;;12.95;;
53062;SDS011;40529;52.172;10.548;2022-11-20T11:26:50;21.88;;;11.48;;
53062;SDS011;40529;52.172;10.548;2022-11-20T11:29:17;19.35;;;11.38;;
53062;SDS011;40529;52.172;10.548;2022-11-20T11:31:43;18.42;;;9.85;;
53062;SDS011;40529;52.172;10.548;2022-11-20T11:36:35;15.25;;;9.27;;
53062;SDS011;40529;52.172;10.548;2022-11-20T11:39:02;15.45;;;8.38;;
53062;SDS011;40529;52.172;10.548;2022-11-20T11:41:30;15.77;;;9.02;;
53062;SDS011;40529;52.172;10.548;2022-11-20T11:44:00;16.63;;;8.88;;
53062;SDS011;40529;52.172;10.548;2022-11-20T11:46:55;15.27;;;8.50;;
53062;SDS011;40529;52.172;10.548;2022-11-20T11:49:21;13.43;;;8.25;;
53062;SDS011;40529;52.172;10.548;2022-11-20T11:54:53;17.88;;;9.50;;
53062;SDS011;40529;52.172;10.548;2022-11-20T12:00:03;13.33;;;6.83;;
53062;SDS011;40529;52.172;10.548;2022-11-20T12:05:02;20.85;;;10.52;;
53062;SDS011;40529;52.172;10.548;2022-11-20T12:10:33;16.70;;;9.27;;
53062;SDS011;40529;52.172;10.548;2022-11-20T12:15:52;9.82;;;5.78;;
53062;SDS011;40529;52.172;10.548;2022-11-20T12:18:19;13.15;;;8.05;;
53062;SDS011;40529;52.172;10.548;2022-11-20T12:20:55;15.00;;;7.35;;
53062;SDS011;40529;52.172;10.548;2022-11-20T12:26:02;14.45;;;8.05;;
53062;SDS011;40529;52.172;10.548;2022-11-20T12:28:33;17.15;;;9.13;;
53062;SDS011;40529;52.172;10.548;2022-11-20T12:33:36;17.33;;;9.10;;
53062;SDS011;40529;52.172;10.548;2022-11-20T12:36:09;12.48;;;7.47;;
53062;SDS011;40529;52.172;10.548;2022-11-20T12:43:43;15.43;;;7.97;;
53062;SDS011;40529;52.172;10.548;2022-11-20T12:46:38;18.50;;;9.07;;
53062;SDS011;40529;52.172;10.548;2022-11-20T12:49:31;16.92;;;7.85;;
53062;SDS011;40529;52.172;10.548;2022-11-20T12:52:51;18.33;;;9.02;;
53062;SDS011;40529;52.172;10.548;2022-11-20T12:57:21;12.27;;;6.78;;
53062;SDS011;40529;52.172;10.548;2022-11-20T13:05:21;12.23;;;7.07;;
53062;SDS011;40529;52.172;10.548;2022-11-20T13:07:50;9.07;;;6.15;;
53062;SDS011;40529;52.172;10.548;2022-11-20T13:10:26;12.25;;;6.95;;
53062;SDS011;40529;52.172;10.548;2022-11-20T13:13:10;12.50;;;6.95;;
53062;SDS011;40529;52.172;10.548;2022-11-20T13:15:59;11.98;;;6.72;;
53062;SDS011;40529;52.172;10.548;2022-11-20T13:18:26;10.98;;;6.25;;
53062;SDS011;40529;52.172;10.548;2022-11-20T13:20:52;10.70;;;5.40;;
53062;SDS011;40529;52.172;10.548;2022-11-20T13:23:27;9.63;;;5.55;;
53062;SDS011;40529;52.172;10.548;2022-11-20T13:26:13;7.50;;;4.80;;
53062;SDS011;40529;52.172;10.548;2022-11-20T13:28:40;7.57;;;4.70;;
53062;SDS011;40529;52.172;10.548;2022-11-20T13:31:11;7.50;;;4.57;;
53062;SDS011;40529;52.172;10.548;2022-11-20T13:33:49;6.82;;;4.75;;
53062;SDS011;40529;52.172;10.548;2022-11-20T13:36:24;9.70;;;5.50;;
53062;SDS011;40529;52.172;10.548;2022-11-20T13:38:55;9.55;;;5.97;;
53062;SDS011;40529;52.172;10.548;2022-11-20T13:41:25;9.50;;;6.07;;
53062;SDS011;40529;52.172;10.548;2022-11-20T13:43:58;9.75;;;6.40;;
53062;SDS011;40529;52.172;10.548;2022-11-20T13:46:34;10.43;;;6.22;;
53062;SDS011;40529;52.172;10.548;2022-11-20T13:49:05;11.35;;;7.25;;
53062;SDS011;40529;52.172;10.548;2022-11-20T13:59:27;13.63;;;8.07;;
53062;SDS011;40529;52.172;10.548;2022-11-20T14:01:57;15.05;;;8.75;;
53062;SDS011;40529;52.172;10.548;2022-11-20T14:04:25;18.98;;;9.57;;
53062;SDS011;40529;52.172;10.548;2022-11-20T14:06:55;17.20;;;10.15;;
53062;SDS011;40529;52.172;10.548;2022-11-20T14:09:26;16.73;;;9.38;;
53062;SDS011;40529;52.172;10.548;2022-11-20T14:11:52;16.33;;;9.40;;
53062;SDS011;40529;52.172;10.548;2022-11-20T14:14:19;20.95;;;9.50;;
53062;SDS011;40529;52.172;10.548;2022-11-20T14:16:47;14.98;;;8.27;;
53062;SDS011;40529;52.172;10.548;2022-11-20T14:21:42;16.03;;;9.13;;
53062;SDS011;40529;52.172;10.548;2022-11-20T14:24:10;13.13;;;8.43;;
53062;SDS011;40529;52.172;10.548;2022-11-20T14:26:37;14.63;;;8.32;;
53062;SDS011;40529;52.172;10.548;2022-11-20T14:29:03;14.73;;;8.40;;
53062;SDS011;40529;52.172;10.548;2022-11-20T14:31:30;13.45;;;8.38;;
53062;SDS011;40529;52.172;10.548;2022-11-20T14:33:57;14.32;;;8.55;;
53062;SDS011;40529;52.172;10.548;2022-11-20T14:36:24;17.17;;;9.52;;
53062;SDS011;40529;52.172;10.548;2022-11-20T14:38:51;15.32;;;9.45;;
53062;SDS011;40529;52.172;10.548;2022-11-20T14:41:23;17.63;;;10.43;;
53062;SDS011;40529;52.172;10.548;2022-11-20T14:43:56;19.23;;;9.27;;
53062;SDS011;40529;52.172;10.548;2022-11-20T14:46:22;15.90;;;9.55;;
53062;SDS011;40529;52.172;10.548;2022-11-20T14:48:50;16.88;;;10.35;;
53062;SDS011;40529;52.172;10.548;2022-11-20T14:51:27;17.15;;;10.52;;
53062;SDS011;40529;52.172;10.548;2022-11-20T14:53:54;16.35;;;9.88;;
53062;SDS011;40529;52.172;10.548;2022-11-20T14:56:23;15.50;;;10.02;;
53062;SDS011;40529;52.172;10.548;2022-11-20T14:58:56;16.70;;;10.52;;
53062;SDS011;40529;52.172;10.548;2022-11-20T15:01:27;17.52;;;10.00;;
53062;SDS011;40529;52.172;10.548;2022-11-20T15:04:27;16.90;;;9.90;;
53062;SDS011;40529;52.172;10.548;2022-11-20T15:06:49;13.40;;;9.07;;
53062;SDS011;40529;52.172;10.548;2022-11-20T15:09:16;15.35;;;9.30;;
53062;SDS011;40529;52.172;10.548;2022-11-20T15:11:50;15.23;;;9.32;;
53062;SDS011;40529;52.172;10.548;2022-11-20T15:14:17;16.73;;;10.00;;
53062;SDS011;40529;52.172;10.548;2022-11-20T15:16:43;17.33;;;10.43;;
53062;SDS011;40529;52.172;10.548;2022-11-20T15:19:16;14.68;;;9.38;;
53062;SDS011;40529;52.172;10.548;2022-11-20T15:21:43;18.38;;;10.23;;
53062;SDS011;40529;52.172;10.548;2022-11-20T15:24:09;15.65;;;9.63;;
53062;SDS011;40529;52.172;10.548;2022-11-20T15:26:35;15.70;;;9.43;;
53062;SDS011;40529;52.172;10.548;2022-11-20T15:29:05;16.65;;;9.80;;
53062;SDS011;40529;52.172;10.548;2022-11-20T15:31:33;18.17;;;10.52;;
53062;SDS011;40529;52.172;10.548;2022-11-20T15:33:59;17.58;;;10.48;;
53062;SDS011;40529;52.172;10.548;2022-11-20T15:36:25;16.08;;;9.80;;
53062;SDS011;40529;52.172;10.548;2022-11-20T15:38:51;18.20;;;10.13;;